createdAt,value
2022-08-14T00:03:07.562Z,85.56
2022-08-14T00:08:14.251Z,85.74
2022-08-14T00:13:21.264Z,86.49
2022-08-14T00:19:05.392Z,86.75
2022-08-14T00:23:54.110Z,87.24
2022-08-14T00:28:57.043Z,87.65
2022-08-14T00:34:36.990Z,87.80
2022-08-14T00:39:24.044Z,88.65
2022-08-14T00:44:32.294Z,88.85
2022-08-14T00:49:42.509Z,89.01
2022-08-14T00:54:58.097Z,89.57
2022-08-14T01:00:01.454Z,90.31
2022-08-14T01:05:07.712Z,90.27
2022-08-14T01:10:11.228Z,90.13
2022-08-14T01:15:14.811Z,90.39
2022-08-14T01:20:40.088Z,90.75
2022-08-14T01:25:44.323Z,90.75
2022-08-14T01:30:49.983Z,90.98
2022-08-14T01:36:03.816Z,91.17
2022-08-14T01:41:11.984Z,91.71
2022-08-14T01:46:36.703Z,91.99
2022-08-14T01:51:41.075Z,92.11
2022-08-14T01:56:44.924Z,92.22
2022-08-14T02:01:58.936Z,93.01
2022-08-14T02:07:05.622Z,93.39
2022-08-14T02:12:09.339Z,93.90
2022-08-14T02:17:13.474Z,94.53
2022-08-14T02:22:29.234Z,94.94
2022-08-14T02:28:23.805Z,95.56
2022-08-14T02:33:01.629Z,95.65
2022-08-14T02:38:04.911Z,96.16
2022-08-14T02:43:07.913Z,96.09
2022-08-14T02:49:04.443Z,96.38
2022-08-14T02:53:33.746Z,96.63
2022-08-14T02:58:42.846Z,96.92
2022-08-14T03:03:48.457Z,97.08
2022-08-14T03:08:53.518Z,97.30
2022-08-14T03:13:56.775Z,96.86
2022-08-14T03:19:02.718Z,97.00
2022-08-14T03:24:21.696Z,97.14
2022-08-14T03:29:29.485Z,97.14
2022-08-14T03:34:48.539Z,97.23
2022-08-14T03:39:55.526Z,97.10
2022-08-14T03:45:18.968Z,97.38
2022-08-14T03:50:30.898Z,97.29
2022-08-14T03:55:35.113Z,97.10
2022-08-14T04:00:42.603Z,96.87
2022-08-14T04:05:48.739Z,96.72
2022-08-14T04:10:52.228Z,96.95
2022-08-14T04:16:01.298Z,97.13
2022-08-14T04:21:05.060Z,96.68
2022-08-14T04:26:14.377Z,96.77
2022-08-14T04:31:24.753Z,97.00
2022-08-14T04:36:27.766Z,96.73
2022-08-14T04:41:49.215Z,96.03
2022-08-14T04:47:12.661Z,95.81
2022-08-14T04:52:23.405Z,95.82
2022-08-14T04:57:27.709Z,95.27
2022-08-14T05:02:34.770Z,94.57
2022-08-14T05:07:53.819Z,94.35
2022-08-14T05:13:12.657Z,93.53
2022-08-14T05:19:16.576Z,92.33
2022-08-14T05:23:42.664Z,90.45
2022-08-14T05:28:49.352Z,89.02
2022-08-14T05:33:56.389Z,87.96
2022-08-14T05:38:59.704Z,86.94
2022-08-14T05:44:05.702Z,85.66
2022-08-14T05:49:09.115Z,84.10
2022-08-14T05:54:26.656Z,82.00
2022-08-14T05:59:36.815Z,79.92
2022-08-14T06:04:49.394Z,79.20
2022-08-14T06:09:52.661Z,78.62
2022-08-14T06:14:55.492Z,77.47
2022-08-14T06:19:58.433Z,77.36
2022-08-14T06:25:01.189Z,76.91
2022-08-14T06:30:09.107Z,76.55
2022-08-14T06:35:15.137Z,76.15
2022-08-14T06:40:27.624Z,75.97
2022-08-14T06:45:32.989Z,76.58
2022-08-14T06:50:36.752Z,76.92
2022-08-14T06:55:40.769Z,76.52
2022-08-14T07:01:26.692Z,76.09
2022-08-14T07:06:46.368Z,74.98
2022-08-14T07:11:51.898Z,73.01
2022-08-14T07:16:55.314Z,71.65
2022-08-14T07:21:59.147Z,70.18
2022-08-14T07:27:08.137Z,69.32
2022-08-14T07:32:12.355Z,69.49
2022-08-14T07:37:25.121Z,69.18
2022-08-14T07:42:29.246Z,69.24
2022-08-14T07:47:31.925Z,69.93
2022-08-14T07:52:35.334Z,70.70
2022-08-14T07:57:40.733Z,70.58
2022-08-14T08:02:45.989Z,70.83
2022-08-14T08:07:49.323Z,69.86
2022-08-14T08:13:11.142Z,68.60
2022-08-14T08:18:27.801Z,66.69
2022-08-14T08:23:40.789Z,64.76
2022-08-14T08:28:57.158Z,63.29
2022-08-14T08:34:05.282Z,62.65
2022-08-14T08:39:16.486Z,62.31
2022-08-14T08:44:31.749Z,61.61
2022-08-14T08:49:48.410Z,61.28
2022-08-14T08:54:56.385Z,61.64
2022-08-14T09:00:02.464Z,61.63
2022-08-14T09:05:12.652Z,61.03
2022-08-14T09:10:17.506Z,60.71
2022-08-14T09:15:25.054Z,60.77
2022-08-14T09:20:30.849Z,60.15
2022-08-14T09:26:00.111Z,58.19
2022-08-14T09:30:59.663Z,57.18
2022-08-14T09:36:32.247Z,56.92
2022-08-14T09:42:21.502Z,56.61
2022-08-14T09:47:46.208Z,57.12
2022-08-14T09:53:18.487Z,56.78
2022-08-14T09:58:23.042Z,55.41
2022-08-14T10:03:36.433Z,54.99
2022-08-14T10:08:51.434Z,54.30
2022-08-14T10:13:59.187Z,54.50
2022-08-14T10:19:10.541Z,54.60
2022-08-14T10:24:40.248Z,55.03
2022-08-14T10:29:51.066Z,53.90
2022-08-14T10:35:13.816Z,53.11
2022-08-14T10:40:38.064Z,50.60
2022-08-14T10:46:04.014Z,48.84
2022-08-14T10:51:30.307Z,46.68
2022-08-14T10:56:37.151Z,45.43
2022-08-14T11:01:41.720Z,43.98
2022-08-14T11:06:56.079Z,44.14
2022-08-14T11:12:34.567Z,44.12
2022-08-14T11:17:25.781Z,44.06
2022-08-14T11:22:52.898Z,43.02
2022-08-14T11:27:56.989Z,42.36
2022-08-14T11:32:59.724Z,41.57
2022-08-14T11:38:04.732Z,40.50
2022-08-14T11:43:09.127Z,40.42
2022-08-14T11:49:03.050Z,40.33
2022-08-14T11:53:42.354Z,40.59
2022-08-14T11:58:53.022Z,41.19
2022-08-14T12:04:00.989Z,41.88
2022-08-14T12:09:04.121Z,42.70
2022-08-14T12:14:30.188Z,42.17
2022-08-14T12:19:51.555Z,40.68
2022-08-14T12:24:57.397Z,39.75
2022-08-14T12:30:00.655Z,39.06
2022-08-14T12:35:03.690Z,39.16
2022-08-14T12:40:11.666Z,39.00
2022-08-14T12:45:17.387Z,38.23
2022-08-14T12:50:20.697Z,38.41
2022-08-14T12:55:32.765Z,37.48
2022-08-14T13:01:16.238Z,37.88
2022-08-14T13:06:17.798Z,37.39
2022-08-14T13:11:23.783Z,37.29
2022-08-14T13:16:33.805Z,36.10
2022-08-14T13:21:58.437Z,36.07
2022-08-14T13:27:05.994Z,35.66
2022-08-14T13:32:13.666Z,35.22
2022-08-14T13:37:19.006Z,34.68
2022-08-14T13:42:22.465Z,35.85
2022-08-14T13:47:30.432Z,36.08
2022-08-14T13:52:52.214Z,37.39
2022-08-14T13:58:04.598Z,37.70
2022-08-14T14:03:09.054Z,38.48
2022-08-14T14:08:18.552Z,39.47
2022-08-14T14:13:22.357Z,40.96
2022-08-14T14:18:34.234Z,43.88
2022-08-14T14:23:38.631Z,48.30
2022-08-14T14:28:43.166Z,53.65
2022-08-14T14:33:48.969Z,54.91
2022-08-14T14:39:04.688Z,57.45
2022-08-14T14:44:11.238Z,60.21
2022-08-14T14:49:31.845Z,65.34
2022-08-14T14:54:46.460Z,69.41
2022-08-14T14:59:49.966Z,73.98
2022-08-14T15:04:53.100Z,78.00
2022-08-14T15:09:55.919Z,81.61
2022-08-14T15:15:09.067Z,87.19
2022-08-14T15:20:17.605Z,93.82
2022-08-14T15:25:31.982Z,95.27
2022-08-14T15:30:34.753Z,95.39
2022-08-14T15:35:37.998Z,96.49
2022-08-14T15:40:51.430Z,97.24
2022-08-14T15:46:00.043Z,98.64
2022-08-14T15:51:04.386Z,99.27
2022-08-14T15:56:09.800Z,99.99
2022-08-14T16:01:37.084Z,100.00
2022-08-14T16:06:45.485Z,100.00
2022-08-14T16:11:57.838Z,100.00
2022-08-14T16:17:02.734Z,100.00
2022-08-14T16:22:58.042Z,100.00
2022-08-14T16:27:40.829Z,100.00
2022-08-14T16:32:55.891Z,100.00
2022-08-14T16:38:44.876Z,100.00
2022-08-14T16:43:26.724Z,100.00
2022-08-14T16:48:57.138Z,100.00
2022-08-14T16:53:54.674Z,100.00
2022-08-14T16:59:09.319Z,100.00
2022-08-14T17:04:24.706Z,100.00
2022-08-14T17:09:29.761Z,100.00
2022-08-14T17:14:58.042Z,100.00
2022-08-14T17:20:02.407Z,100.00
2022-08-14T17:25:12.262Z,100.00
2022-08-14T17:30:32.628Z,100.00
2022-08-14T17:35:58.678Z,100.00
2022-08-14T17:41:22.190Z,100.00
2022-08-14T17:46:43.178Z,100.00
2022-08-14T17:52:17.217Z,100.00
2022-08-14T17:57:24.488Z,100.00
2022-08-14T18:02:32.818Z,100.00
2022-08-14T18:07:59.426Z,100.00
2022-08-14T18:13:01.726Z,100.00
2022-08-14T18:18:08.997Z,100.00
2022-08-14T18:23:13.103Z,100.00
2022-08-14T18:28:18.360Z,100.00
2022-08-14T18:33:51.886Z,100.00
2022-08-14T18:39:21.193Z,100.00
2022-08-14T18:44:50.677Z,100.00
2022-08-14T18:49:54.284Z,100.00
2022-08-14T18:54:59.092Z,100.00
2022-08-14T19:00:40.672Z,100.00
2022-08-14T19:05:47.840Z,100.00
2022-08-14T19:10:57.677Z,100.00
2022-08-14T19:16:08.796Z,100.00
2022-08-14T19:21:24.542Z,100.00
2022-08-14T19:26:35.579Z,100.00
2022-08-14T19:31:55.412Z,100.00
2022-08-14T19:37:09.885Z,100.00
2022-08-14T19:42:27.868Z,100.00
2022-08-14T19:47:41.251Z,100.00
2022-08-14T19:52:45.858Z,100.00
2022-08-14T19:57:58.723Z,100.00
2022-08-14T20:03:11.737Z,100.00
2022-08-14T20:11:02.420Z,100.00
2022-08-14T20:13:39.534Z,100.00
2022-08-14T20:18:51.994Z,100.00
2022-08-14T20:24:30.315Z,100.00
2022-08-14T20:29:38.855Z,100.00
2022-08-14T20:34:51.053Z,100.00
2022-08-14T20:39:55.675Z,100.00
2022-08-14T20:45:18.053Z,100.00
2022-08-14T20:50:28.822Z,100.00
2022-08-14T20:55:41.381Z,100.00
2022-08-14T21:00:57.653Z,100.00
2022-08-14T21:06:19.467Z,100.00
2022-08-14T21:11:25.176Z,100.00
2022-08-14T21:16:36.740Z,100.00
2022-08-14T21:21:45.348Z,100.00
2022-08-14T21:27:12.262Z,100.00
2022-08-14T21:32:50.563Z,100.00
2022-08-14T21:38:00.326Z,100.00
2022-08-14T21:43:03.272Z,100.00
2022-08-14T21:48:09.229Z,100.00
2022-08-14T21:53:14.573Z,100.00
2022-08-14T21:58:52.672Z,100.00
2022-08-14T22:03:44.964Z,100.00
2022-08-14T22:08:52.730Z,100.00
2022-08-14T22:13:58.361Z,100.00
2022-08-14T22:19:10.588Z,100.00
2022-08-14T22:24:37.759Z,100.00
2022-08-14T22:29:42.141Z,100.00
2022-08-14T22:34:48.603Z,100.00
2022-08-14T22:40:51.233Z,100.00
2022-08-14T22:45:14.535Z,100.00
2022-08-14T22:50:29.038Z,100.00
2022-08-14T22:55:36.523Z,100.00
2022-08-14T23:00:41.976Z,100.00
2022-08-14T23:05:51.764Z,100.00
2022-08-14T23:10:57.670Z,100.00
2022-08-14T23:16:00.675Z,100.00
2022-08-14T23:21:10.084Z,100.00
2022-08-14T23:26:48.072Z,100.00
2022-08-14T23:31:36.421Z,100.00
2022-08-14T23:36:53.428Z,100.00
2022-08-14T23:42:06.247Z,100.00
2022-08-14T23:47:25.252Z,100.00
2022-08-14T23:53:06.725Z,100.00
2022-08-14T23:58:00.672Z,100.00
